KALX

Thomas C Russell Field Airport

Alexander City, Alabama, USA
METAR KALX 212335Z AUTO 23005KT 10SM SCT075 SCT085 25/25 A2989 RMK AO2 LTG DSNT SE T02520252
Observed Flight Rules
Jun-21 @ 23:35 UTC (20 minutes ago) Visual Flight Rules
Wind Visibility Clouds
230° at 5 knots 10 miles
  • Scattered at 7,500' AGL
  • Scattered at 8,500' AGL
Temperatures Readings
Current 25°C / 77°F
Dewpoint 25°C / 77°F
Humidity 100%
Altimeter 29.89" Hg
Pressure 1012 hPa
Elevation 209
METAR KALX 212335Z AUTO 23005KT 10SM SCT075 SCT085 25/25 A2989 RMK AO2 LTG DSNT SE T02520252
Observed Flight Rules
Jun-21 @ 23:35 UTC
(20 minutes ago)
VFR
Wind Visibility
230° at 5 knots 10 miles
Clouds
  • Scattered at 7,500' AGL
  • Scattered at 8,500' AGL
Temperature Dewpoint
25°C / 77°F 25°C / 77°F
Humidity Altimeter Pressure
100% 29.89" Hg 1012 hPa